Home > Products > Valid Products > MTR

000
SAUS44 KMEG 170254
MTRTUP
METAR KTUP 170253Z 04008KT 10SM SCT110 22/19 A3004 RMK AO2 SLP168
T02170189 51013





000
SAUS44 KMEG 170154
MTRTUP
METAR KTUP 170153Z 04008KT 10SM CLR 23/19 A3003 RMK AO2 SLP165
T02280194





000
SAUS44 KMEG 170055
MTRTUP
METAR KTUP 170053Z 04008KT 10SM CLR 24/20 A3002 RMK AO2 SLP163
T02390200





000
SAUS44 KMEG 170013
MTRTUP
SPECI KTUP 170011Z 04010KT 10SM SCT026 26/20 A3001 RMK AO2 T02560200





000
SAUS44 KMEG 162354
MTRTUP
METAR KTUP 162353Z 06012KT 10SM BKN026 26/21 A3000 RMK AO2 SLP154
T02610206 10311 20261 53001





000
SAUS44 KMEG 162349
MTRTUP
SPECI KTUP 162348Z 05013KT 10SM BKN027 27/21 A3000 RMK AO2





000
SAUS44 KMEG 162254
MTRTUP
METAR KTUP 162253Z 36006KT 10SM CLR 29/21 A2999 RMK AO2 SLP152
T02890211





000
SAUS44 KMEG 162154
MTRTUP
METAR KTUP 162153Z 01004KT 10SM SCT120 29/19 A3000 RMK AO2 SLP153
T02890194





000
SAUS44 KMEG 162054
MTRTUP
METAR KTUP 162053Z 07009KT 10SM BKN041 BKN100 28/19 A3001 RMK AO2
SLP159 T02830189 56013





000
SAUS44 KMEG 162021
MTRTUP
SPECI KTUP 162020Z 03005KT 10SM VCTS SCT110 31/19 A3002 RMK AO2 LTG
DSNT NE T03060194





000
SAUS44 KMEG 162008
MTRTUP
SPECI KTUP 162007Z 35004KT 10SM BKN110 31/19 A3002 RMK AO2 LTG DSNT
NE T03110194





000
SAUS44 KMEG 161954
MTRTUP
METAR KTUP 161953Z VRB04KT 10SM VCTS BKN110 31/20 A3002 RMK AO2 LTG
DSNT NE SLP163 T03060200





000
SAUS44 KMEG 161951
MTRTUP
SPECI KTUP 161950Z 01005KT 10SM VCTS OVC110 31/19 A3003 RMK AO2





000
SAUS44 KMEG 161854
MTRTUP
METAR KTUP 161853Z 02003KT 10SM OVC110 31/19 A3005 RMK AO2 SLP172
T03060189





000
SAUS44 KMEG 161754
MTRTUP
METAR KTUP 161753Z 10SM BKN110 29/18 A3007 RMK AO2 SLP178 T02940183
10306 20222 58015





000
SAUS44 KMEG 161654
MTRTUP
METAR KTUP 161653Z 00000KT 10SM OVC110 29/18 A3008 RMK AO2 SLP182
T02890183





000
SAUS44 KMEG 161554
MTRTUP
METAR KTUP 161553Z 07005KT 10SM CLR 28/18 A3010 RMK AO2 SLP189
T02780178





000
SAUS44 KMEG 161454
MTRTUP
METAR KTUP 161453Z 34003KT 10SM SCT110 26/18 A3012 RMK AO2 SLP193
T02610183 53001





000
SAUS44 KMEG 161354
MTRTUP
METAR KTUP 161353Z 10003KT 10SM SCT120 24/19 A3011 RMK AO2 SLP193
T02390189





000
SAUS44 KMEG 161254
MTRTUP
METAR KTUP 161253Z 00000KT 10SM CLR 22/19 A3011 RMK AO2 SLP191
T02220194





000
SAUS44 KMEG 161154
MTRTUP
METAR KTUP 161153Z 00000KT 10SM CLR 22/19 A3011 RMK AO2 SLP192
T02220194 10233 20222 51006





000
SAUS44 KMEG 161054
MTRTUP
METAR KTUP 161053Z 00000KT 10SM BKN110 22/19 A3011 RMK AO2 SLP190
T02220194





000
SAUS44 KMEG 160954
MTRTUP
METAR KTUP 160953Z AUTO 00000KT 10SM OVC110 23/20 A3010 RMK AO2
SLP188 T02280200





000
SAUS44 KMEG 160854
MTRTUP
METAR KTUP 160853Z AUTO 03004KT 10SM CLR 22/20 A3009 RMK AO2 SLP186
T02220200 55003





000
SAUS44 KMEG 160754
MTRTUP
METAR KTUP 160753Z AUTO 00000KT 10SM BKN120 23/21 A3009 RMK AO2
SLP183 T02280206





000
SAUS44 KMEG 160654
MTRTUP
METAR KTUP 160653Z AUTO 00000KT 10SM BKN110 23/19 A3009 RMK AO2
SLP185 T02330194





000
SAUS44 KMEG 160554
MTRTUP
METAR KTUP 160553Z AUTO 00000KT 10SM OVC120 23/20 A3010 RMK AO2
SLP189 T02330200 10272 20228 403000172 58006





000
SAUS44 KMEG 160454
MTRTUP
METAR KTUP 160453Z AUTO 02003KT 10SM BKN120 23/20 A3011 RMK AO2
SLP192 T02330200





000
SAUS44 KMEG 160354
MTRTUP
METAR KTUP 160353Z AUTO 00000KT 10SM BKN120 24/20 A3012 RMK AO2
SLP196 T02440200





000
SAUS44 KMEG 160254
MTRTUP
METAR KTUP 160253Z 34004KT 10SM FEW095 SCT120 24/20 A3012 RMK AO2
SLP195 T02440200 53011





000
SAUS44 KMEG 160154
MTRTUP
METAR KTUP 160153Z 03004KT 10SM CLR 25/21 A3011 RMK AO2 SLP193
T02500206





000
SAUS44 KMEG 160054
MTRTUP
METAR KTUP 160053Z 00000KT 10SM CLR 26/20 A3009 RMK AO2 SLP186
T02610200





000
SAUS44 KMEG 152354
MTRTUP
METAR KTUP 152353Z 31003KT 10SM CLR 27/19 A3009 RMK AO2 SLP185
T02720194 10300 20272 50001





000
SAUS44 KMEG 152254
MTRTUP
METAR KTUP 152253Z 32003KT 10SM FEW120 28/19 A3009 RMK AO2 SLP185
T02830189





000
SAUS44 KMEG 152154
MTRTUP
METAR KTUP 152153Z 33004KT 10SM CLR 29/19 A3008 RMK AO2 SLP183
T02890189





000
SAUS44 KMEG 152054
MTRTUP
METAR KTUP 152053Z 32004KT 10SM CLR 29/19 A3008 RMK AO2 SLP183
T02890189 56019





000
SAUS44 KMEG 151954
MTRTUP
METAR KTUP 151953Z VRB04KT 10SM CLR 29/19 A3010 RMK AO2 SLP188
T02940189





000
SAUS44 KMEG 151854
MTRTUP
METAR KTUP 151853Z 10SM CLR 30/19 A3012 RMK AO2 SLP193 T03000189





000
SAUS44 KMEG 151754
MTRTUP
METAR KTUP 151753Z VRB04KT 10SM FEW037 29/18 A3014 RMK AO2 SLP202
T02890183 10294 20178 56010





000
SAUS44 KMEG 151654
MTRTUP
METAR KTUP 151653Z 35004KT 10SM CLR 29/19 A3015 RMK AO2 SLP205
T02890189





000
SAUS44 KMEG 151554
MTRTUP
METAR KTUP 151553Z 35004KT 10SM CLR 28/18 A3016 RMK AO2 SLP208
T02780183





000
SAUS44 KMEG 151454
MTRTUP
METAR KTUP 151453Z 00000KT 10SM CLR 24/18 A3017 RMK AO2 SLP212
T02440178 53005





000
SAUS44 KMEG 151354
MTRTUP
METAR KTUP 151353Z 03003KT 10SM CLR 22/17 A3016 RMK AO2 SLP209
T02170167





000
SAUS44 KMEG 151255
MTRTUP
METAR KTUP 151253Z 05003KT 10SM CLR 18/16 A3015 RMK AO2 SLP208
T01830156





000
SAUS44 KMEG 151154
MTRTUP
METAR KTUP 151153Z 03005KT 10SM CLR 18/16 A3015 RMK AO2 SLP207
T01780156 10183 20172 53005





000
SAUS44 KMEG 151054
MTRTUP
METAR KTUP 151053Z 03004KT 10SM CLR 17/15 A3015 RMK AO2 SLP205
T01720150





000
SAUS44 KMEG 150954
MTRTUP
METAR KTUP 150953Z AUTO 03005KT 10SM CLR 17/16 A3014 RMK AO2 SLP203
T01720156





000
SAUS44 KMEG 150854
MTRTUP
METAR KTUP 150853Z AUTO 04004KT 10SM CLR 18/16 A3014 RMK AO2 SLP202
T01780156 56007





000
SAUS44 KMEG 150754
MTRTUP
METAR KTUP 150753Z AUTO 03005KT 10SM CLR 18/16 A3014 RMK AO2 SLP204
T01780156





000
SAUS44 KMEG 150654
MTRTUP
METAR KTUP 150653Z AUTO 03005KT 10SM CLR 18/16 A3015 RMK AO2 SLP206
T01830156





000
SAUS44 KMEG 150554
MTRTUP
METAR KTUP 150553Z AUTO 04005KT 10SM CLR 18/16 A3016 RMK AO2 SLP209
T01830161 10244 20183 402780139 55001





000
SAUS44 KMEG 150454
MTRTUP
METAR KTUP 150453Z AUTO 04005KT 10SM CLR 18/17 A3016 RMK AO2 SLP208
T01830167





000
SAUS44 KMEG 150354
MTRTUP
METAR KTUP 150353Z AUTO 04006KT 10SM CLR 19/17 A3016 RMK AO2 SLP211
T01890167





000
SAUS44 KMEG 150254
MTRTUP
METAR KTUP 150253Z 04006KT 10SM CLR 19/17 A3016 RMK AO2 SLP211
T01940167 53011





000
SAUS44 KMEG 150154
MTRTUP
METAR KTUP 150153Z 04004KT 10SM CLR 21/17 A3015 RMK AO2 SLP209
T02060167





000
SAUS44 KMEG 150054
MTRTUP
METAR KTUP 150053Z 04006KT 10SM CLR 22/17 A3014 RMK AO2 SLP202
T02170167





000
SAUS44 KMEG 142354
MTRTUP
METAR KTUP 142353Z 06004KT 10SM CLR 24/16 A3013 RMK AO2 SLP200
T02440156 10278 20244 55002





000
SAUS44 KMEG 142254
MTRTUP
METAR KTUP 142253Z 06007KT 10SM CLR 27/15 A3013 RMK AO2 SLP198
T02670150





000
SAUS44 KMEG 142154
MTRTUP
METAR KTUP 142153Z AUTO 07008KT 10SM CLR 27/16 A3013 RMK AO2 SLP201
T02720156





000
SAUS44 KMEG 142054
MTRTUP
METAR KTUP 142053Z AUTO 07008KT 10SM CLR 27/15 A3014 RMK AO2 SLP201
T02720150 56018





000
SAUS44 KMEG 141954
MTRTUP
METAR KTUP 141953Z AUTO 01006KT 10SM CLR 27/16 A3015 RMK AO2 SLP205
T02720156





000
SAUS44 KMEG 141854
MTRTUP
METAR KTUP 141853Z 04008KT 10SM CLR 26/15 A3017 RMK AO2 SLP214
T02610150





000
SAUS44 KMEG 141754
MTRTUP
METAR KTUP 141753Z 04010KT 10SM CLR 26/15 A3019 RMK AO2 SLP219
T02560150 10256 20139 58015





000
SAUS44 KMEG 141654
MTRTUP
METAR KTUP 141653Z VRB06KT 10SM CLR 23/15 A3020 RMK AO2 SLP226
T02330150





000
SAUS44 KMEG 141554
MTRTUP
METAR KTUP 141553Z VRB05KT 10SM CLR 22/15 A3022 RMK AO2 SLP231
T02220150





000
SAUS44 KMEG 141454
MTRTUP
METAR KTUP 141453Z 07005KT 10SM CLR 20/14 A3023 RMK AO2 SLP235
T02000144 53008





000
SAUS44 KMEG 141354
MTRTUP
METAR KTUP 141353Z 06006KT 10SM CLR 18/13 A3022 RMK AO2 SLP232
T01780133





000
SAUS44 KMEG 141254
MTRTUP
METAR KTUP 141253Z 05007KT 10SM CLR 15/13 A3022 RMK AO2 SLP229
T01500128





000
SAUS44 KMEG 141154
MTRTUP
METAR KTUP 141153Z 04005KT 8SM CLR 14/12 A3021 RMK AO2 SLP227
T01390122 10161 20139 53010





000
SAUS44 KMEG 141054
MTRTUP
METAR KTUP 141053Z 04005KT 8SM CLR 14/12 A3019 RMK AO2 SLP221
T01390122





000
SAUS44 KMEG 140954
MTRTUP
METAR KTUP 140953Z 03006KT 8SM CLR 14/13 A3019 RMK AO2 SLP219
T01440128





000
SAUS44 KMEG 140854
MTRTUP
METAR KTUP 140853Z 03006KT 7SM CLR 14/13 A3018 RMK AO2 SLP216
T01440128 56005





000
SAUS44 KMEG 140754
MTRTUP
METAR KTUP 140753Z 04006KT 7SM CLR 15/13 A3018 RMK AO2 SLP217
T01500133





000
SAUS44 KMEG 140654
MTRTUP
METAR KTUP 140653Z 03006KT 8SM CLR 15/13 A3018 RMK AO2 SLP218
T01500133





000
SAUS44 KMEG 140554
MTRTUP
METAR KTUP 140553Z 04006KT 10SM CLR 16/13 A3019 RMK AO2 SLP221
T01610133 10183 20161 402000161 58005





000
SAUS44 KMEG 140454
MTRTUP
METAR KTUP 140453Z 04006KT 10SM FEW020 17/14 A3020 RMK AO2 SLP224
T01670139





000
SAUS44 KMEG 140452
MTRTUP
SPECI KTUP 140451Z 04008KT 10SM SCT021 17/14 A3020 RMK AO2





000
SAUS44 KMEG 140354
MTRTUP
METAR KTUP 140353Z 05009KT 10SM OVC022 18/14 A3021 RMK AO2 SLP226
T01780139





    US Dept of Commerce
    National Oceanic and Atmospheric Administration
    National Weather Service
    1325 East West Highway
    Silver Spring, MD 20910
    Page Author: NWS Internet Services Team
Disclaimer
Information Quality
Credits
Glossary
Privacy Policy
Freedom of Information Act (FOIA)
About Us
Career Opportunities